Jewett, Wisconsin
Current Conditions -  °F | °C
As of 11:35 PM on Wednesday 17 Dec 2014 (Local Time) from KRNH Reporting Station
Overcast Overcast  
Wind Chill: -13°   Ceiling: 2100
Heat Index: -9°   Visibility: 10mi
Dew Point: -10°   Wind: 5mph
Humidity: 90%   Direction: 30°NNE
Pressure: 30.31"   Gusts: NA
Location:  45.1804°N, 92.551°W
Report Text: KRNH 180535Z AUTO 03004KT 10SM OVC021 M09/M10 A3031 RMK AO2 T10871101
Loading
Personal Weather Stations






























Interactive Weather Map New forecast layout! Learn more

10-Day Weather Forecast

Advertisements
Track Severe Weather on mobile